Time;durP1;ratioP1;P1;durP2;ratioP2;P2;SDS_P1;SDS_P2;PMS_P1;PMS_P2;Temp;Humidity;BMP_temperature;BMP_pressure;BME280_temperature;BME280_humidity;BME280_pressure;Samples;Min_cycle;Max_cycle;Signal;HPM_P1;HPM_P2
2023/07/03 00:00:18;;;;;;;20.50;9.93;;;;;;;18.13;55.42;150608.97;4951352;28;20236;-63
2023/07/03 00:02:49;;;;;;;20.33;10.30;;;;;;;18.15;59.45;150612.75;4960333;28;20231;-63
2023/07/03 00:05:17;;;;;;;24.80;10.87;;;;;;;18.09;59.16;150597.75;4947270;28;20332;-63
2023/07/03 00:07:46;;;;;;;25.23;10.67;;;;;;;18.11;56.84;150602.75;4947402;28;20256;-63
2023/07/03 00:10:14;;;;;;;19.97;10.03;;;;;;;18.12;56.25;150605.25;4949066;28;20248;-63
2023/07/03 00:12:40;;;;;;;18.53;9.70;;;;;;;18.18;55.34;150620.25;4948954;28;20335;-63
2023/07/03 00:15:08;;;;;;;24.27;10.47;;;;;;;18.26;54.79;150639.00;4945132;28;20300;-63
2023/07/03 00:17:37;;;;;;;21.67;9.40;;;;;;;18.30;54.11;150649.03;4949325;28;20272;-63
2023/07/03 00:20:04;;;;;;;24.27;10.57;;;;;;;18.35;54.22;150661.53;4945082;28;20239;-63
2023/07/03 00:22:31;;;;;;;23.70;10.57;;;;;;;18.41;53.83;150676.56;4950580;28;20708;-63
2023/07/03 00:24:59;;;;;;;21.13;9.87;;;;;;;18.43;53.45;150680.34;4945960;28;21117;-63
2023/07/03 00:27:25;;;;;;;23.17;10.13;;;;;;;18.52;53.89;150702.88;4950942;28;20245;-63
2023/07/03 00:29:52;;;;;;;22.03;9.93;;;;;;;18.54;53.00;150706.59;4944047;28;20240;-63
2023/07/03 00:32:19;;;;;;;20.73;9.93;;;;;;;18.58;52.58;150717.84;4969124;28;20252;-63
2023/07/03 00:34:45;;;;;;;26.37;10.63;;;;;;;18.72;51.72;150750.38;4942480;28;20228;-63
2023/07/03 00:37:14;;;;;;;22.00;9.23;;;;;;;18.73;52.64;150754.16;4947439;28;20305;-63
2023/07/03 00:39:40;;;;;;;19.43;9.57;;;;;;;18.75;51.60;150757.91;4950099;28;20239;-63
2023/07/03 00:42:09;;;;;;;22.47;10.57;;;;;;;18.85;50.65;150782.94;4945008;28;21095;-63
2023/07/03 00:44:35;;;;;;;16.97;8.83;;;;;;;18.81;50.38;150771.69;4953382;28;20237;-63
2023/07/03 00:47:03;;;;;;;20.47;10.37;;;;;;;18.89;50.58;150791.72;4947027;28;20569;-63
2023/07/03 00:49:31;;;;;;;20.83;10.50;;;;;;;18.85;51.17;150782.94;4963037;28;20779;-63
2023/07/03 00:51:58;;;;;;;24.83;10.40;;;;;;;18.93;51.46;150800.47;4944846;28;20249;-63
2023/07/03 00:54:25;;;;;;;21.63;10.30;;;;;;;18.94;50.67;150804.25;4948387;28;20298;-63
2023/07/03 00:56:52;;;;;;;21.90;10.07;;;;;;;18.89;50.95;150792.97;4945754;28;20236;-63
2023/07/03 00:59:20;;;;;;;20.93;9.47;;;;;;;18.88;51.68;150789.22;4944777;28;20704;-63
2023/07/03 01:01:53;;;;;;;21.13;10.03;;;;;;;18.95;51.44;150806.75;4942779;28;20239;-63
2023/07/03 01:04:27;;;;;;;22.53;9.63;;;;;;;18.88;52.19;150789.22;4947534;28;20243;-63
2023/07/03 01:06:58;;;;;;;23.47;10.57;;;;;;;18.81;51.72;150772.94;4944391;28;20601;-63
2023/07/03 01:09:33;;;;;;;22.37;10.80;;;;;;;18.79;52.27;150766.69;4949442;28;20260;-63
2023/07/03 01:12:01;;;;;;;19.23;9.50;;;;;;;18.78;50.96;150765.41;4952236;28;20236;-63
2023/07/03 01:14:31;;;;;;;25.10;10.30;;;;;;;18.81;50.89;150771.69;4948118;28;20370;-63
2023/07/03 01:17:01;;;;;;;20.80;10.23;;;;;;;18.84;50.56;150780.44;4941446;28;20252;-63
2023/07/03 01:19:31;;;;;;;22.23;10.17;;;;;;;18.81;52.45;150771.69;4954140;28;20233;-63
2023/07/03 01:22:03;;;;;;;23.30;10.03;;;;;;;18.74;51.66;150756.66;4944184;28;20925;-63
2023/07/03 01:24:38;;;;;;;23.07;9.27;;;;;;;18.77;50.85;150762.91;4951790;28;20230;-63
2023/07/03 01:27:07;;;;;;;25.40;10.07;;;;;;;18.79;52.42;150766.69;4960170;28;20660;-63
2023/07/03 01:29:35;;;;;;;20.30;9.70;;;;;;;18.78;51.99;150765.41;4947542;28;20228;-63
2023/07/03 01:32:05;;;;;;;19.03;10.37;;;;;;;18.83;51.84;150776.72;4943756;28;20241;-63
2023/07/03 01:34:33;;;;;;;21.90;10.33;;;;;;;18.86;51.54;150785.44;4946191;28;20231;-63
2023/07/03 01:37:02;;;;;;;22.33;9.80;;;;;;;18.84;51.12;150780.44;4945687;28;20713;-63
2023/07/03 01:39:28;;;;;;;22.50;9.67;;;;;;;18.81;52.13;150771.69;4945490;28;20662;-63
2023/07/03 01:41:59;;;;;;;21.73;9.90;;;;;;;18.89;51.72;150791.72;4942564;28;20334;-63
2023/07/03 01:44:25;;;;;;;20.33;9.53;;;;;;;18.87;52.14;150786.72;4949316;28;21066;-63
2023/07/03 01:46:52;;;;;;;20.43;9.63;;;;;;;18.79;52.57;150766.69;4945185;28;20336;-63
2023/07/03 01:49:19;;;;;;;21.40;9.53;;;;;;;18.79;52.74;150767.91;4951407;28;20238;-63
2023/07/03 01:51:50;;;;;;;21.90;9.57;;;;;;;18.73;53.32;150754.16;4945948;28;20251;-63
2023/07/03 01:54:26;;;;;;;16.83;8.83;;;;;;;18.77;53.06;150761.69;4949346;28;20843;-63
2023/07/03 01:56:55;;;;;;;18.27;9.27;;;;;;;18.76;52.87;150760.41;4944572;28;20238;-63
2023/07/03 01:59:29;;;;;;;18.67;9.23;;;;;;;18.75;52.94;150757.91;4953318;28;20231;-63
2023/07/03 02:02:01;;;;;;;21.10;8.93;;;;;;;18.71;53.64;150749.16;4946292;28;20226;-63
2023/07/03 02:04:32;;;;;;;19.77;9.77;;;;;;;18.71;53.37;150747.88;4950417;28;20265;-63
2023/07/03 02:07:00;;;;;;;21.77;9.63;;;;;;;18.71;53.36;150747.88;4946363;28;20943;-63
2023/07/03 02:09:30;;;;;;;21.50;9.37;;;;;;;18.70;54.06;150746.66;4956442;28;20259;-63
2023/07/03 02:11:59;;;;;;;21.70;9.77;;;;;;;18.74;53.64;150756.66;4952204;28;20332;-63
2023/07/03 02:14:29;;;;;;;19.97;9.23;;;;;;;18.69;53.70;150744.16;4946869;28;20776;-63
2023/07/03 02:16:56;;;;;;;20.23;9.90;;;;;;;18.68;53.99;150740.38;4945353;28;20306;-63
2023/07/03 02:19:28;;;;;;;23.67;10.07;;;;;;;18.61;54.17;150722.84;4947294;28;20245;-63
2023/07/03 02:21:55;;;;;;;21.23;8.70;;;;;;;18.62;54.64;150726.63;4950139;28;20346;-63
2023/07/03 02:24:22;;;;;;;17.87;9.07;;;;;;;18.57;54.41;150714.13;4951434;28;20230;-63
2023/07/03 02:26:48;;;;;;;18.30;9.23;;;;;;;18.61;54.15;150722.84;4949759;28;20321;-56
2023/07/03 02:29:15;;;;;;;20.23;8.13;;;;;;;18.57;54.62;150715.34;4952170;28;20232;-63
2023/07/03 02:31:43;;;;;;;19.60;8.87;;;;;;;18.59;54.23;150719.13;4958397;28;20262;-63
2023/07/03 02:34:10;;;;;;;18.73;9.13;;;;;;;18.59;54.35;150719.13;4953211;28;20228;-63
2023/07/03 02:36:37;;;;;;;20.20;8.77;;;;;;;18.64;54.23;150730.38;4958930;28;20234;-63
2023/07/03 02:39:05;;;;;;;18.97;9.53;;;;;;;18.62;54.23;150726.63;4952805;28;20707;-63
2023/07/03 02:41:32;;;;;;;21.53;9.27;;;;;;;18.64;54.35;150731.63;4964410;28;20230;-63
2023/07/03 02:43:58;;;;;;;22.00;10.00;;;;;;;18.57;55.02;150714.13;4952889;28;20316;-63
2023/07/03 02:46:28;;;;;;;21.63;9.17;;;;;;;18.59;54.74;150719.13;4956074;28;20244;-63
2023/07/03 02:48:56;;;;;;;22.93;8.77;;;;;;;18.57;54.58;150715.34;4952820;28;20273;-63
2023/07/03 02:51:25;;;;;;;17.50;8.30;;;;;;;18.57;54.65;150715.34;4957108;28;20242;-62
2023/07/03 02:53:55;;;;;;;15.97;8.53;;;;;;;18.55;54.57;150710.34;4953641;28;20276;-62
2023/07/03 02:56:25;;;;;;;15.63;8.60;;;;;;;18.58;54.27;150716.63;4949558;28;20241;-62
2023/07/03 02:58:52;;;;;;;18.33;8.43;;;;;;;18.62;54.08;150725.34;4952011;28;20231;-62
2023/07/03 03:04:13;;;;;;;19.27;8.80;;;;;;;18.54;54.62;150706.59;5406137;23;20236;-62
2023/07/03 03:06:40;;;;;;;19.37;8.57;;;;;;;18.52;54.91;150702.88;4955418;28;20454;-62
2023/07/03 03:09:08;;;;;;;20.00;8.80;;;;;;;18.49;54.81;150695.38;4963564;28;20240;-62
2023/07/03 03:11:36;;;;;;;17.77;7.87;;;;;;;18.47;54.69;150690.34;4962535;28;20227;-62
2023/07/03 03:14:03;;;;;;;20.30;8.93;;;;;;;18.56;54.67;150711.59;4961266;28;20691;-63
2023/07/03 03:16:31;;;;;;;16.90;8.50;;;;;;;18.50;55.37;150697.88;4965950;28;20224;-63
2023/07/03 03:18:58;;;;;;;16.93;8.20;;;;;;;18.51;56.15;150699.09;4963533;28;20592;-63
2023/07/03 03:21:26;;;;;;;19.40;8.33;;;;;;;18.53;55.12;150705.38;4965811;28;20320;-63
2023/07/03 03:23:53;;;;;;;21.83;8.93;;;;;;;18.51;54.98;150699.09;4963793;28;20315;-63
2023/07/03 03:26:25;;;;;;;21.53;8.40;;;;;;;18.48;54.65;150691.59;4981337;28;20285;-63
2023/07/03 03:28:52;;;;;;;18.27;8.70;;;;;;;18.50;55.09;150697.88;4963119;28;20241;-63
2023/07/03 03:31:43;;;;;;;18.00;8.63;;;;;;;18.48;55.01;150691.59;5173942;23;20258;-63
2023/07/03 03:34:10;;;;;;;20.90;8.43;;;;;;;18.44;54.69;150684.06;4942313;28;20227;-63
2023/07/03 03:36:38;;;;;;;14.73;7.60;;;;;;;18.43;54.56;150681.56;4948081;29;20231;-63
2023/07/03 03:39:06;;;;;;;14.40;7.70;;;;;;;18.47;55.09;150690.34;4926899;29;20230;-62
2023/07/03 03:41:33;;;;;;;18.03;8.70;;;;;;;18.46;55.00;150687.84;4922398;29;20229;-62
2023/07/03 03:44:00;;;;;;;18.93;8.13;;;;;;;18.47;55.62;150690.34;4901854;29;20676;-62
2023/07/03 03:46:27;;;;;;;19.27;8.23;;;;;;;18.44;55.57;150682.84;4928441;29;20242;-62
2023/07/03 03:48:59;;;;;;;18.70;8.30;;;;;;;18.44;55.54;150682.84;4908826;29;20329;-62
2023/07/03 03:51:26;;;;;;;15.83;8.33;;;;;;;18.46;55.50;150687.84;4900638;29;20739;-62
2023/07/03 03:53:54;;;;;;;17.37;8.43;;;;;;;18.44;55.14;150684.06;4914115;29;20591;-62
2023/07/03 03:56:25;;;;;;;17.13;8.00;;;;;;;18.41;55.96;150676.56;4931160;29;20662;-62
2023/07/03 03:58:51;;;;;;;16.20;7.80;;;;;;;18.49;54.86;150695.38;4908381;29;20578;-62
2023/07/03 04:01:43;;;;;;;18.07;8.60;;;;;;;18.50;55.14;150697.88;4931600;29;20262;-62
2023/07/03 04:04:10;;;;;;;17.83;8.20;;;;;;;18.57;54.97;150714.13;4911154;29;20234;-62
2023/07/03 04:06:37;;;;;;;20.73;7.43;;;;;;;18.54;55.08;150706.59;4929955;29;20631;-62
2023/07/03 04:09:07;;;;;;;14.90;7.90;;;;;;;18.57;54.61;150715.34;4925015;29;20759;-62
2023/07/03 04:11:34;;;;;;;17.57;8.30;;;;;;;18.53;55.01;150705.38;4930818;29;20729;-62
2023/07/03 04:14:00;;;;;;;16.73;7.60;;;;;;;18.57;54.67;150714.13;4930921;29;20293;-62
2023/07/03 04:16:29;;;;;;;15.37;7.43;;;;;;;18.57;54.20;150715.34;4929687;29;20240;-63
2023/07/03 04:18:56;;;;;;;23.90;9.03;;;;;;;18.61;54.87;150724.13;4924838;29;20240;-62
2023/07/03 04:21:25;;;;;;;16.50;7.97;;;;;;;18.68;55.11;150740.38;4927549;29;20716;-62
2023/07/03 04:23:51;;;;;;;15.33;7.87;;;;;;;18.72;53.80;150751.66;4928129;29;20693;-62
2023/07/03 04:26:23;;;;;;;16.67;7.97;;;;;;;18.66;54.62;150736.66;4930055;29;20274;-62
2023/07/03 04:28:50;;;;;;;18.10;7.60;;;;;;;18.64;54.60;150731.63;4932710;29;20228;-62
2023/07/03 04:31:16;;;;;;;16.23;7.33;;;;;;;18.68;54.68;150740.38;4936334;29;20247;-62
2023/07/03 04:33:45;;;;;;;16.70;7.73;;;;;;;18.69;54.36;150742.88;4933640;29;20248;-62
2023/07/03 04:36:12;;;;;;;19.00;8.30;;;;;;;18.68;55.46;150740.38;4929179;29;20238;-62
2023/07/03 04:38:41;;;;;;;16.57;8.17;;;;;;;18.63;55.97;150729.13;4912989;29;20312;-63
2023/07/03 04:41:08;;;;;;;16.63;7.90;;;;;;;18.62;55.82;150726.63;4928622;29;20242;-63
2023/07/03 04:43:44;;;;;;;19.43;8.03;;;;;;;18.62;55.85;150726.63;4911471;29;20232;-63
2023/07/03 04:46:12;;;;;;;20.63;8.20;;;;;;;18.58;56.12;150716.63;4915451;29;20247;-62
2023/07/03 04:48:40;;;;;;;23.03;8.43;;;;;;;18.59;56.15;150719.13;4929211;29;20267;-62
2023/07/03 04:51:08;;;;;;;16.40;7.70;;;;;;;18.64;55.58;150731.63;4923899;29;20290;-62
2023/07/03 04:53:41;;;;;;;19.87;8.10;;;;;;;18.71;54.86;150747.88;4928307;29;20643;-62
2023/07/03 04:56:09;;;;;;;20.97;8.33;;;;;;;18.69;55.61;150744.16;4923923;29;20620;-62
2023/07/03 04:58:39;;;;;;;17.37;8.47;;;;;;;18.66;55.76;150735.38;4934759;29;20238;-62
2023/07/03 05:01:06;;;;;;;14.43;7.60;;;;;;;18.75;54.70;150757.91;4921994;29;20238;-62
2023/07/03 05:03:33;;;;;;;18.23;7.43;;;;;;;18.67;55.04;150739.16;4931060;29;20776;-62
2023/07/03 05:05:59;;;;;;;19.67;8.20;;;;;;;18.72;54.63;150751.66;4931373;29;20732;-62
2023/07/03 05:08:26;;;;;;;19.63;8.87;;;;;;;18.65;56.10;150734.13;4903181;29;20235;-62
2023/07/03 05:10:52;;;;;;;15.80;7.60;;;;;;;18.71;55.85;150747.88;4927395;29;20304;-62
2023/07/03 05:13:19;;;;;;;17.97;8.67;;;;;;;18.73;54.99;150752.91;4929196;29;20644;-62
2023/07/03 05:15:47;;;;;;;19.87;7.60;;;;;;;18.69;55.41;150744.16;4917596;29;20781;-62
2023/07/03 05:18:13;;;;;;;14.47;7.50;;;;;;;18.72;56.52;150751.66;4930369;29;20313;-62
2023/07/03 05:20:42;;;;;;;19.73;8.17;;;;;;;18.70;56.04;150746.66;4925986;29;20242;-62
2023/07/03 05:23:09;;;;;;;17.47;8.00;;;;;;;18.73;55.24;150752.91;4922166;29;20721;-62
2023/07/03 05:25:36;;;;;;;19.40;7.93;;;;;;;18.71;56.32;150747.88;4931492;29;20244;-62
2023/07/03 05:28:03;;;;;;;18.20;8.00;;;;;;;18.70;56.66;150746.66;4921690;29;20437;-63
2023/07/03 05:30:29;;;;;;;19.23;8.97;;;;;;;18.66;56.70;150736.66;4930872;29;20341;-62
2023/07/03 05:32:57;;;;;;;18.77;8.97;;;;;;;18.69;57.69;150742.88;4925540;29;20747;-62
2023/07/03 05:35:25;;;;;;;18.50;7.90;;;;;;;18.74;57.88;150756.66;4932321;29;21053;-62
2023/07/03 05:37:51;;;;;;;15.47;8.17;;;;;;;18.75;58.84;150757.91;4928704;29;20254;-62
2023/07/03 05:40:19;;;;;;;16.93;8.00;;;;;;;18.58;59.33;150717.84;4931765;29;20236;-62
2023/07/03 05:42:46;;;;;;;14.53;7.07;;;;;;;18.60;60.50;150721.63;4926516;29;20230;-62
2023/07/03 05:45:13;;;;;;;14.90;8.13;;;;;;;18.61;59.87;150722.84;4924983;29;20237;-62
2023/07/03 05:47:40;;;;;;;21.03;7.90;;;;;;;18.67;60.10;150739.16;4912411;29;20239;-62
2023/07/03 05:50:09;;;;;;;15.63;7.80;;;;;;;18.70;59.58;150746.66;4927422;29;20241;-62
2023/07/03 05:52:39;;;;;;;15.57;7.50;;;;;;;18.72;59.29;150750.38;4930389;29;20229;-62
2023/07/03 05:55:06;;;;;;;17.87;8.23;;;;;;;18.67;59.08;150739.16;4924760;29;20328;-63
2023/07/03 05:57:33;;;;;;;19.33;7.73;;;;;;;18.81;60.22;150771.69;4930690;29;20238;-62
2023/07/03 06:00:00;;;;;;;20.47;8.13;;;;;;;18.84;60.17;150779.22;4923650;29;20219;-63
2023/07/03 06:02:27;;;;;;;13.97;7.30;;;;;;;18.90;59.88;150794.22;4928957;29;20318;-61
2023/07/03 06:04:53;;;;;;;14.37;7.87;;;;;;;18.97;59.75;150810.53;4930629;29;20578;-62
2023/07/03 06:07:21;;;;;;;17.23;7.67;;;;;;;19.00;59.60;150819.31;4936642;29;20233;-62
2023/07/03 06:09:48;;;;;;;17.50;8.00;;;;;;;19.01;59.38;150821.81;4933831;29;20293;-62
2023/07/03 06:12:14;;;;;;;19.20;8.83;;;;;;;19.09;59.90;150839.31;4933016;29;20321;-62
2023/07/03 06:14:41;;;;;;;16.00;7.80;;;;;;;19.14;60.50;150851.81;4939083;29;20295;-62
2023/07/03 06:17:07;;;;;;;23.43;8.70;;;;;;;19.12;59.72;150846.81;4932557;29;20244;-62
2023/07/03 06:19:34;;;;;;;13.80;7.87;;;;;;;19.33;59.13;150899.41;4941345;28;20239;-62
2023/07/03 06:22:01;;;;;;;18.00;7.90;;;;;;;19.26;59.84;150880.66;4935456;28;20227;-62
2023/07/03 06:24:28;;;;;;;17.60;8.23;;;;;;;19.33;59.71;150899.41;4935241;29;20227;-62
2023/07/03 06:26:57;;;;;;;20.17;8.23;;;;;;;19.30;60.28;150891.91;4929865;29;20286;-62
2023/07/03 06:29:24;;;;;;;15.50;7.83;;;;;;;19.45;59.51;150928.25;4935230;29;20234;-62
2023/07/03 06:31:52;;;;;;;16.13;8.23;;;;;;;19.27;59.10;150884.38;4935307;28;20723;-62
2023/07/03 06:34:18;;;;;;;20.10;8.70;;;;;;;19.50;58.58;150938.25;4935793;29;20907;-62
2023/07/03 06:36:45;;;;;;;19.17;8.50;;;;;;;19.68;58.65;150982.06;4927469;29;20246;-62
2023/07/03 06:39:13;;;;;;;19.63;8.73;;;;;;;19.75;58.50;151000.84;4932902;29;20246;-62
2023/07/03 06:41:40;;;;;;;20.30;8.70;;;;;;;19.84;58.00;151022.16;4935902;29;20232;-62
2023/07/03 06:44:12;;;;;;;19.77;9.00;;;;;;;19.99;57.91;151057.28;4932925;28;20240;-62
2023/07/03 06:46:39;;;;;;;17.53;8.43;;;;;;;19.95;57.42;151048.47;4924839;29;20298;-62
2023/07/03 06:49:05;;;;;;;20.50;8.90;;;;;;;19.91;58.05;151039.75;4937874;28;20597;-62
2023/07/03 06:51:33;;;;;;;18.07;8.93;;;;;;;19.80;58.14;151010.84;4935946;28;20236;-62
2023/07/03 06:53:59;;;;;;;23.23;8.70;;;;;;;19.97;58.51;151053.50;4934023;28;20236;-62
2023/07/03 06:56:27;;;;;;;19.67;8.57;;;;;;;20.29;57.64;151131.16;4937070;29;20695;-62
2023/07/03 06:58:55;;;;;;;18.97;9.40;;;;;;;20.17;58.41;151101.09;4933105;29;20250;-62
2023/07/03 07:01:27;;;;;;;19.30;8.60;;;;;;;20.41;57.36;151158.72;4932367;29;20909;-62
2023/07/03 07:03:54;;;;;;;19.30;8.63;;;;;;;20.58;57.42;151201.34;4924697;29;20247;-62
2023/07/03 07:06:27;;;;;;;16.33;8.77;;;;;;;20.50;57.83;151182.53;4902852;29;20258;-62
2023/07/03 07:08:54;;;;;;;16.57;8.23;;;;;;;20.63;56.96;151213.88;4930123;29;20227;-62
2023/07/03 07:11:27;;;;;;;20.63;8.23;;;;;;;20.45;55.84;151170.00;4936205;29;20324;-62
2023/07/03 07:13:57;;;;;;;20.00;9.23;;;;;;;20.31;55.09;151134.91;4927863;29;20295;-62
2023/07/03 07:16:27;;;;;;;17.80;7.87;;;;;;;20.40;54.85;151157.47;4927364;29;20327;-62
2023/07/03 07:18:56;;;;;;;17.13;7.63;;;;;;;20.21;52.74;151112.34;4928901;29;20223;-62
2023/07/03 07:21:25;;;;;;;20.23;7.47;;;;;;;20.52;52.44;151186.31;4930910;29;20244;-62
2023/07/03 07:23:53;;;;;;;17.57;7.07;;;;;;;20.47;51.68;151175.00;4927133;29;20244;-62
2023/07/03 07:26:28;;;;;;;18.30;7.10;;;;;;;20.61;51.15;151208.84;4933316;29;20245;-62
2023/07/03 07:28:56;;;;;;;16.13;6.37;;;;;;;20.54;51.47;151190.03;4929556;29;20235;-62
2023/07/03 07:31:28;;;;;;;18.23;6.07;;;;;;;20.51;49.93;151183.78;4930643;29;20331;-62
2023/07/03 07:33:55;;;;;;;19.13;6.20;;;;;;;20.51;49.99;151183.78;4922261;29;20633;-62
2023/07/03 07:36:27;;;;;;;16.63;6.07;;;;;;;20.74;49.99;151240.16;4930095;29;20241;-62
2023/07/03 07:38:54;;;;;;;14.43;6.03;;;;;;;20.98;49.85;151297.88;4928374;29;20225;-62
2023/07/03 07:41:25;;;;;;;20.30;6.13;;;;;;;20.87;49.62;151270.28;4930075;29;20875;-62
2023/07/03 07:43:53;;;;;;;20.83;6.27;;;;;;;21.39;47.76;151398.09;4933052;29;20327;-62
2023/07/03 07:46:29;;;;;;;17.80;6.17;;;;;;;21.33;48.21;151383.06;4930502;29;20747;-62
2023/07/03 07:48:56;;;;;;;13.47;5.87;;;;;;;21.05;49.44;151314.13;4925396;29;20234;-62
2023/07/03 07:51:25;;;;;;;20.20;6.40;;;;;;;21.46;47.02;151413.16;4932435;29;20328;-63
2023/07/03 07:53:52;;;;;;;20.10;5.90;;;;;;;21.27;48.91;151368.00;4929880;29;20237;-63
2023/07/03 07:56:26;;;;;;;14.70;5.53;;;;;;;21.59;48.18;151445.75;4928727;29;20234;-63
2023/07/03 07:58:53;;;;;;;13.90;5.20;;;;;;;22.03;47.83;151552.38;4927489;29;20771;-63
2023/07/03 08:01:26;;;;;;;19.17;5.67;;;;;;;21.81;47.30;151498.47;4933511;29;20265;-63
2023/07/03 08:03:53;;;;;;;23.77;5.97;;;;;;;22.23;48.18;151600.03;4929711;29;20247;-63
2023/07/03 08:06:25;;;;;;;17.97;6.10;;;;;;;22.58;46.41;151685.38;4934230;29;20251;-63
2023/07/03 08:08:51;;;;;;;16.07;5.90;;;;;;;22.43;46.90;151648.91;4925316;29;20291;-63
2023/07/03 08:11:44;;;;;;;18.23;6.57;;;;;;;22.41;46.78;151645.19;4923565;28;20235;-63
2023/07/03 08:14:10;;;;;;;14.10;6.10;;;;;;;22.46;46.53;151655.25;4927755;29;20317;-63
2023/07/03 08:16:38;;;;;;;12.90;6.43;;;;;;;22.46;47.02;151656.50;4931434;29;20296;-63
2023/07/03 08:19:05;;;;;;;21.40;6.97;;;;;;;22.80;46.23;151739.28;4927888;29;20241;-63
2023/07/03 08:21:31;;;;;;;18.60;6.57;;;;;;;22.40;47.03;151642.66;4928428;29;20248;-63
2023/07/03 08:23:58;;;;;;;17.47;6.70;;;;;;;22.17;48.23;151586.25;4923452;29;20245;-63
2023/07/03 08:26:25;;;;;;;19.47;6.90;;;;;;;21.99;48.26;151541.09;4929784;29;20251;-63
2023/07/03 08:28:51;;;;;;;17.93;6.73;;;;;;;22.07;48.23;151561.16;4923198;29;20242;-63
2023/07/03 08:31:45;;;;;;;18.73;6.90;;;;;;;21.92;49.19;151524.78;4923620;29;20249;-63
2023/07/03 08:34:11;;;;;;;20.77;7.87;;;;;;;22.06;49.65;151558.66;4916818;29;20256;-63
2023/07/03 08:36:38;;;;;;;18.77;7.00;;;;;;;22.03;48.62;151551.13;4927484;29;20241;-63
2023/07/03 08:39:05;;;;;;;19.90;7.80;;;;;;;22.14;49.93;151578.72;4925410;29;20252;-63
2023/07/03 08:41:37;;;;;;;21.30;7.37;;;;;;;22.29;48.90;151615.06;4927451;29;20241;-63
2023/07/03 08:44:04;;;;;;;21.30;8.00;;;;;;;22.34;47.06;151626.34;4930179;29;30873;-63
2023/07/03 08:46:33;;;;;;;16.57;7.87;;;;;;;22.88;46.70;151756.84;4934642;29;20237;-63
2023/07/03 08:49:04;;;;;;;18.20;7.87;;;;;;;23.33;46.25;151867.28;4932303;29;20226;-63
2023/07/03 08:51:34;;;;;;;19.10;7.60;;;;;;;23.63;46.47;151940.09;4926624;29;20230;-63
2023/07/03 08:54:07;;;;;;;20.80;7.73;;;;;;;23.84;44.48;151990.28;4921056;29;20235;-63
2023/07/03 08:56:34;;;;;;;17.73;8.00;;;;;;;23.44;46.12;151894.91;4929209;29;20239;-63
2023/07/03 08:59:03;;;;;;;17.73;7.13;;;;;;;23.46;44.77;151898.69;4927804;29;20278;-63
2023/07/03 09:01:36;;;;;;;15.80;7.77;;;;;;;23.43;44.48;151892.38;4928186;29;20331;-63
2023/07/03 09:04:21;;;;;;;18.10;6.93;;;;;;;23.08;45.64;151807.06;4923651;29;20553;-63
2023/07/03 09:06:53;;;;;;;15.33;7.00;;;;;;;23.03;46.38;151794.50;4924423;29;20234;-63
2023/07/03 09:09:25;;;;;;;17.27;7.60;;;;;;;23.07;45.54;151803.25;4924527;29;20231;-63
2023/07/03 09:11:59;;;;;;;16.70;7.27;;;;;;;23.35;44.62;151872.31;4923635;29;20270;-63
2023/07/03 09:14:31;;;;;;;19.67;7.10;;;;;;;22.96;45.74;151778.16;4930547;29;20245;-61
2023/07/03 09:16:58;;;;;;;23.20;7.43;;;;;;;22.37;47.64;151635.16;4921493;29;20239;-61
2023/07/03 09:19:28;;;;;;;19.20;7.00;;;;;;;22.39;47.64;151640.16;4921822;29;20698;-61
2023/07/03 09:21:58;;;;;;;16.70;7.50;;;;;;;22.59;47.73;151687.88;4923291;29;20233;-61
2023/07/03 09:24:28;;;;;;;17.27;7.33;;;;;;;22.22;46.94;151598.78;4920899;29;20266;-61
2023/07/03 09:27:05;;;;;;;12.43;6.93;;;;;;;22.01;48.17;151547.34;4924385;29;20260;-61
2023/07/03 09:29:35;;;;;;;23.67;7.87;;;;;;;21.83;47.96;151503.47;4918827;29;20229;-62
2023/07/03 09:32:02;;;;;;;20.90;7.23;;;;;;;21.65;49.39;151460.84;4926110;29;20232;-62
2023/07/03 09:35:15;;;;;;;18.33;7.43;;;;;;;22.02;49.90;151548.63;4934043;29;20229;-62
2023/07/03 09:37:43;;;;;;;14.57;7.23;;;;;;;22.09;48.61;151566.19;4907711;29;20233;-62
2023/07/03 09:40:15;;;;;;;22.10;7.93;;;;;;;22.05;49.41;151557.38;4929912;29;20244;-62
2023/07/03 09:42:42;;;;;;;21.80;7.30;;;;;;;21.39;50.43;151398.09;4924947;29;20235;-62
2023/07/03 09:45:14;;;;;;;20.90;7.93;;;;;;;21.74;50.16;151480.91;4926672;29;20722;-63
2023/07/03 09:47:46;;;;;;;18.63;7.33;;;;;;;21.91;49.68;151522.25;4914250;29;20258;-62
2023/07/03 09:50:14;;;;;;;14.90;6.83;;;;;;;21.82;49.16;151502.19;4926937;29;20691;-62
2023/07/03 09:52:44;;;;;;;26.47;7.40;;;;;;;22.04;49.26;151554.88;4931784;29;20227;-62
2023/07/03 09:55:11;;;;;;;16.93;6.43;;;;;;;22.05;48.36;151557.38;4933373;29;20300;-62
2023/07/03 09:57:39;;;;;;;16.90;7.30;;;;;;;22.18;49.76;151588.75;4927677;29;20245;-62
2023/07/03 10:00:12;;;;;;;15.23;6.13;;;;;;;21.90;48.18;151521.03;4922977;29;20700;-62
2023/07/03 10:02:40;;;;;;;17.30;5.43;;;;;;;22.21;46.86;151595.00;4925793;29;20706;-63
2023/07/03 10:05:07;;;;;;;14.00;5.30;;;;;;;22.54;46.97;151675.34;4921909;29;20238;-62
2023/07/03 10:07:41;;;;;;;12.20;4.13;;;;;;;22.75;45.83;151725.50;4920551;29;20237;-62
2023/07/03 10:10:10;;;;;;;7.67;3.80;;;;;;;23.18;43.69;151829.63;4919283;29;20237;-62
2023/07/03 10:12:43;;;;;;;11.70;4.20;;;;;;;23.22;42.95;151840.91;4927140;29;20237;-62
2023/07/03 10:15:16;;;;;;;12.70;4.37;;;;;;;23.14;44.97;151820.81;4925333;29;20682;-62
2023/07/03 10:17:48;;;;;;;12.90;3.93;;;;;;;23.25;43.25;151847.25;4925723;29;20294;-62
2023/07/03 10:20:21;;;;;;;10.37;3.50;;;;;;;22.94;43.57;151771.91;4926031;29;20597;-62
2023/07/03 10:22:50;;;;;;;12.00;3.90;;;;;;;23.47;44.16;151899.91;4903716;29;20241;-62
2023/07/03 10:25:22;;;;;;;14.33;4.33;;;;;;;24.06;42.58;152043.06;4925997;29;20600;-63
2023/07/03 10:27:52;;;;;;;11.67;4.40;;;;;;;24.27;43.13;152094.53;4906243;29;20231;-62
2023/07/03 10:30:20;;;;;;;13.80;4.23;;;;;;;23.97;42.93;152021.66;4931644;29;20252;-62
2023/07/03 10:32:53;;;;;;;14.30;4.70;;;;;;;24.09;41.69;152051.84;4920359;29;20570;-62
2023/07/03 10:35:23;;;;;;;10.73;4.57;;;;;;;24.00;42.08;152030.50;4925282;29;20238;-62
2023/07/03 10:37:59;;;;;;;10.37;4.90;;;;;;;23.59;43.57;151930.03;4925328;29;20245;-62
2023/07/03 10:40:32;;;;;;;11.33;4.43;;;;;;;23.86;42.07;151996.53;4918748;29;20249;-63
2023/07/03 10:43:03;;;;;;;11.10;4.27;;;;;;;24.37;42.37;152118.41;4927224;29;20243;-62
2023/07/03 10:45:33;;;;;;;12.07;4.27;;;;;;;24.76;43.25;152213.84;4930981;29;20815;-62
2023/07/03 10:48:06;;;;;;;13.07;4.40;;;;;;;24.34;42.14;152110.88;4928272;29;20234;-63
2023/07/03 10:50:38;;;;;;;12.40;4.73;;;;;;;23.85;43.24;151994.03;4936949;29;20293;-61
2023/07/03 10:53:13;;;;;;;15.53;4.70;;;;;;;23.55;43.62;151921.28;4927197;29;20244;-63
2023/07/03 10:55:48;;;;;;;14.37;4.23;;;;;;;23.71;43.80;151958.94;4929989;29;20324;-63
2023/07/03 10:58:23;;;;;;;11.73;4.37;;;;;;;24.11;42.85;152055.63;4931166;29;20257;-63
2023/07/03 11:00:57;;;;;;;14.97;4.10;;;;;;;23.79;43.17;151979.03;4926334;29;20233;-63
2023/07/03 11:03:34;;;;;;;12.43;4.17;;;;;;;24.06;42.75;152043.06;4907101;29;20235;-62
2023/07/03 11:06:05;;;;;;;10.57;4.17;;;;;;;23.82;43.44;151985.28;4923663;29;20230;-62
2023/07/03 11:08:42;;;;;;;8.93;3.43;;;;;;;24.00;44.00;152030.50;4931696;29;20291;-62
2023/07/03 11:11:18;;;;;;;12.00;4.30;;;;;;;24.52;43.00;152154.78;4932916;29;20245;-62
2023/07/03 11:13:51;;;;;;;11.50;4.07;;;;;;;24.43;42.89;152133.41;4927119;29;20231;-62
2023/07/03 11:16:28;;;;;;;8.97;3.70;;;;;;;24.08;43.55;152049.31;4902557;29;20295;-62
2023/07/03 11:19:09;;;;;;;10.17;3.73;;;;;;;23.68;43.13;151951.41;4924969;29;20582;-62
2023/07/03 11:21:42;;;;;;;9.10;3.77;;;;;;;23.63;42.12;151940.09;4930348;29;20233;-62
2023/07/03 11:24:16;;;;;;;8.27;3.47;;;;;;;23.08;44.98;151807.06;4931382;29;20275;-62
2023/07/03 11:26:50;;;;;;;9.97;3.43;;;;;;;23.24;46.29;151845.97;4928407;29;20306;-62
2023/07/03 11:29:17;;;;;;;8.27;3.50;;;;;;;23.25;43.95;151847.25;4927604;29;20238;-62